createdAt,value
2019-04-27T00:02:24.946Z,8.27
2019-04-27T00:05:32.021Z,8.27
2019-04-27T00:08:19.948Z,8.43
2019-04-27T00:11:13.674Z,8.43
2019-04-27T00:13:45.170Z,8.43
2019-04-27T00:16:50.918Z,8.68
2019-04-27T00:19:39.870Z,8.59
2019-04-27T00:22:33.458Z,8.66
2019-04-27T00:25:05.782Z,8.40
2019-04-27T00:27:37.142Z,8.37
2019-04-27T00:30:08.601Z,8.38
2019-04-27T00:32:40.056Z,8.27
2019-04-27T00:35:13.843Z,8.16
2019-04-27T00:37:59.567Z,8.05
2019-04-27T00:40:34.972Z,8.28
2019-04-27T00:43:06.305Z,8.32
2019-04-27T00:45:37.699Z,8.38
2019-04-27T00:48:09.143Z,8.26
2019-04-27T00:50:40.361Z,8.40
2019-04-27T00:53:13.270Z,8.34
2019-04-27T00:56:17.621Z,8.23
2019-04-27T00:59:06.881Z,8.22
2019-04-27T01:01:43.637Z,8.30
2019-04-27T01:04:19.921Z,8.28
2019-04-27T01:06:51.356Z,8.39
2019-04-27T01:09:23.697Z,8.42
2019-04-27T01:11:55.022Z,8.14
2019-04-27T01:14:26.505Z,8.29
2019-04-27T01:16:59.814Z,8.35
2019-04-27T01:19:31.437Z,8.22
2019-04-27T01:22:02.752Z,8.35
2019-04-27T01:24:34.011Z,8.44
2019-04-27T01:27:23.694Z,8.42
2019-04-27T01:29:55.848Z,8.54
2019-04-27T01:32:29.162Z,8.57
2019-04-27T01:35:00.074Z,8.58
2019-04-27T01:37:31.270Z,8.57
2019-04-27T01:40:03.201Z,8.30
2019-04-27T01:42:34.422Z,8.12
2019-04-27T01:45:06.108Z,8.24
2019-04-27T01:47:39.074Z,8.35
2019-04-27T01:50:10.760Z,8.45
2019-04-27T01:52:41.952Z,8.47
2019-04-27T01:55:13.203Z,8.31
2019-04-27T01:57:44.413Z,8.26
2019-04-27T02:00:32.566Z,8.34
2019-04-27T02:03:05.582Z,8.55
2019-04-27T02:05:56.711Z,8.65
2019-04-27T02:08:28.632Z,8.64
2019-04-27T02:11:00.117Z,8.64
2019-04-27T02:13:31.650Z,8.59
2019-04-27T02:16:02.973Z,8.61
2019-04-27T02:18:37.580Z,8.61
2019-04-27T02:21:09.116Z,8.32
2019-04-27T02:23:40.907Z,8.50
2019-04-27T02:26:12.381Z,8.21
2019-04-27T02:28:58.535Z,8.38
2019-04-27T02:31:54.575Z,8.56
2019-04-27T02:34:30.279Z,8.49
2019-04-27T02:37:02.567Z,8.44
2019-04-27T02:39:34.261Z,8.56
2019-04-27T02:42:05.856Z,8.66
2019-04-27T02:44:41.180Z,8.53
2019-04-27T02:47:12.352Z,8.54
2019-04-27T02:49:43.842Z,8.46
2019-04-27T02:52:22.042Z,8.50
2019-04-27T02:54:53.498Z,8.62
2019-04-27T02:57:24.785Z,8.33
2019-04-27T02:59:56.100Z,8.50
2019-04-27T03:02:33.366Z,8.59
2019-04-27T03:05:04.938Z,8.71
2019-04-27T03:07:39.962Z,8.78
2019-04-27T03:10:09.923Z,8.76
2019-04-27T03:12:46.668Z,8.72
2019-04-27T03:15:46.330Z,8.71
2019-04-27T03:18:51.007Z,8.70
2019-04-27T03:21:26.135Z,8.54
2019-04-27T03:24:00.065Z,8.54
2019-04-27T03:26:50.060Z,8.69
2019-04-27T03:29:23.004Z,8.73
2019-04-27T03:31:54.785Z,8.70
2019-04-27T03:34:26.585Z,8.76
2019-04-27T03:36:59.745Z,8.37
2019-04-27T03:39:32.814Z,8.31
2019-04-27T03:42:03.904Z,8.15
2019-04-27T03:44:35.308Z,8.15
2019-04-27T03:47:06.533Z,8.32
2019-04-27T03:49:41.661Z,8.17
2019-04-27T03:52:30.185Z,8.30
2019-04-27T03:55:14.652Z,8.17
2019-04-27T03:58:03.463Z,8.29
2019-04-27T04:00:34.717Z,8.32
2019-04-27T04:03:06.032Z,8.15
2019-04-27T04:05:39.681Z,8.27
2019-04-27T04:08:10.934Z,8.22
2019-04-27T04:10:50.949Z,8.45
2019-04-27T04:13:29.561Z,8.41
2019-04-27T04:16:07.792Z,8.29
2019-04-27T04:19:09.467Z,8.30
2019-04-27T04:21:40.373Z,8.31
2019-04-27T04:24:12.479Z,8.23
2019-04-27T04:26:44.193Z,8.27
2019-04-27T04:29:15.488Z,8.34
2019-04-27T04:31:46.890Z,8.37
2019-04-27T04:34:19.754Z,8.35
2019-04-27T04:36:51.387Z,8.38
2019-04-27T04:39:22.948Z,8.38
2019-04-27T04:42:06.134Z,8.40
2019-04-27T04:44:50.337Z,8.31
2019-04-27T04:47:40.524Z,8.31
2019-04-27T04:50:15.024Z,8.42
2019-04-27T04:52:44.473Z,8.50
2019-04-27T04:55:16.095Z,8.36
2019-04-27T04:57:49.317Z,8.42
2019-04-27T05:00:20.581Z,8.45
2019-04-27T05:02:52.092Z,8.13
2019-04-27T05:05:23.488Z,8.20
2019-04-27T05:07:54.712Z,8.18
2019-04-27T05:10:26.077Z,8.20
2019-04-27T05:12:59.070Z,8.22
2019-04-27T05:15:30.635Z,8.29
2019-04-27T05:18:02.030Z,8.21
2019-04-27T05:21:04.647Z,8.18
2019-04-27T05:23:36.316Z,8.17
2019-04-27T05:26:09.189Z,8.16
2019-04-27T05:28:40.893Z,8.30
2019-04-27T05:31:12.413Z,8.32
2019-04-27T05:33:43.897Z,8.22
2019-04-27T05:36:15.446Z,8.34
2019-04-27T05:38:47.326Z,8.30
2019-04-27T05:41:18.838Z,8.43
2019-04-27T05:44:12.721Z,8.37
2019-04-27T05:47:09.986Z,8.15
2019-04-27T05:50:03.742Z,8.09
2019-04-27T05:52:34.956Z,8.27
2019-04-27T05:55:06.302Z,8.03
2019-04-27T05:57:39.059Z,8.20
2019-04-27T06:00:12.791Z,8.23
2019-04-27T06:02:45.366Z,8.32
2019-04-27T06:05:22.892Z,8.21
2019-04-27T06:07:54.417Z,8.19
2019-04-27T06:10:25.656Z,8.11
2019-04-27T06:12:57.177Z,8.13
2019-04-27T06:15:30.181Z,8.20
2019-04-27T06:18:03.215Z,8.29
2019-04-27T06:20:34.386Z,8.32
2019-04-27T06:23:05.591Z,8.27
2019-04-27T06:25:39.214Z,8.19
2019-04-27T06:28:10.052Z,8.33
2019-04-27T06:30:42.949Z,8.17
2019-04-27T06:33:27.243Z,8.31
2019-04-27T06:35:49.541Z,8.41
2019-04-27T06:38:21.099Z,8.44
2019-04-27T06:40:52.360Z,8.54
2019-04-27T06:43:24.448Z,8.72
2019-04-27T06:45:55.783Z,8.70
2019-04-27T06:48:27.148Z,8.47
2019-04-27T06:51:03.587Z,8.26
2019-04-27T06:53:31.587Z,8.40
2019-04-27T06:56:02.867Z,8.37
2019-04-27T06:58:34.460Z,8.52
2019-04-27T07:01:05.661Z,8.62
2019-04-27T07:03:36.856Z,8.56
2019-04-27T07:06:08.820Z,8.70
2019-04-27T07:08:40.251Z,8.71
2019-04-27T07:11:11.750Z,8.88
2019-04-27T07:13:42.911Z,9.08
2019-04-27T07:16:14.246Z,9.05
2019-04-27T07:18:45.704Z,9.21
2019-04-27T07:21:21.621Z,9.39
2019-04-27T07:23:59.844Z,9.39
2019-04-27T07:26:31.362Z,9.38
2019-04-27T07:29:02.801Z,9.39
2019-04-27T07:31:34.047Z,9.43
2019-04-27T07:34:05.272Z,9.38
2019-04-27T07:36:36.515Z,9.56
2019-04-27T07:39:11.479Z,9.78
2019-04-27T07:41:42.453Z,10.01
2019-04-27T07:44:39.148Z,10.03
2019-04-27T07:47:30.740Z,9.99
2019-04-27T07:50:01.518Z,10.05
2019-04-27T07:52:33.164Z,9.78
2019-04-27T07:55:04.471Z,9.73
2019-04-27T07:57:35.743Z,9.76
2019-04-27T08:00:08.830Z,9.83
2019-04-27T08:02:41.326Z,9.81
2019-04-27T08:05:12.731Z,9.55
2019-04-27T08:07:44.047Z,9.68
2019-04-27T08:10:16.125Z,9.73
2019-04-27T08:12:47.355Z,9.49
2019-04-27T08:15:19.105Z,9.76
2019-04-27T08:17:50.438Z,9.71
2019-04-27T08:20:22.039Z,10.03
2019-04-27T08:22:53.463Z,10.02
2019-04-27T08:25:25.186Z,10.07
2019-04-27T08:28:19.597Z,9.99
2019-04-27T08:31:15.857Z,10.01
2019-04-27T08:33:48.629Z,10.10
2019-04-27T08:36:20.216Z,10.21
2019-04-27T08:38:51.675Z,10.19
2019-04-27T08:41:22.923Z,10.10
2019-04-27T08:43:54.258Z,10.14
2019-04-27T08:46:25.724Z,10.09
2019-04-27T08:48:58.709Z,10.22
2019-04-27T08:51:30.275Z,10.38
2019-04-27T08:54:01.764Z,10.30
2019-04-27T08:56:33.249Z,10.33
2019-04-27T08:59:04.927Z,10.36
2019-04-27T09:01:36.191Z,10.42
2019-04-27T09:04:09.232Z,10.42
2019-04-27T09:06:42.532Z,10.33
2019-04-27T09:09:21.591Z,10.47
2019-04-27T09:11:59.482Z,10.62
2019-04-27T09:14:45.374Z,10.63
2019-04-27T09:17:41.963Z,10.72
2019-04-27T09:20:32.605Z,10.29
2019-04-27T09:23:03.885Z,10.19
2019-04-27T09:25:35.371Z,10.07
2019-04-27T09:28:08.653Z,10.20
2019-04-27T09:30:40.244Z,10.30
2019-04-27T09:33:11.933Z,10.28
2019-04-27T09:35:46.616Z,10.20
2019-04-27T09:38:18.555Z,10.37
2019-04-27T09:40:49.932Z,10.54
2019-04-27T09:43:21.485Z,10.43
2019-04-27T09:45:52.935Z,10.39
2019-04-27T09:48:25.904Z,10.22
2019-04-27T09:50:57.503Z,10.21
2019-04-27T09:53:29.035Z,10.08
2019-04-27T09:56:00.632Z,9.93
2019-04-27T09:58:31.994Z,10.10
2019-04-27T10:01:03.582Z,10.10
2019-04-27T10:03:36.215Z,10.02
2019-04-27T10:06:09.124Z,10.00
2019-04-27T10:08:40.663Z,9.67
2019-04-27T10:11:12.116Z,9.93
2019-04-27T10:13:43.407Z,10.03
2019-04-27T10:16:14.935Z,9.85
2019-04-27T10:18:46.607Z,9.89
2019-04-27T10:21:17.891Z,9.95
2019-04-27T10:23:49.276Z,9.90
2019-04-27T10:26:20.490Z,9.94
2019-04-27T10:28:51.797Z,10.08
2019-04-27T10:31:23.235Z,10.19
2019-04-27T10:33:55.943Z,10.30
2019-04-27T10:36:39.833Z,10.05
2019-04-27T10:39:13.398Z,10.12
2019-04-27T10:42:15.214Z,10.04
2019-04-27T10:45:09.418Z,10.01
2019-04-27T10:47:49.473Z,9.90
2019-04-27T10:50:32.524Z,10.10
2019-04-27T10:53:18.297Z,10.09
2019-04-27T10:56:07.244Z,10.03
2019-04-27T10:58:38.846Z,10.32
2019-04-27T11:01:10.097Z,10.38
2019-04-27T11:04:05.652Z,10.67
2019-04-27T11:06:39.763Z,10.90
2019-04-27T11:09:12.072Z,10.72
2019-04-27T11:11:43.419Z,10.80
2019-04-27T11:14:16.004Z,10.96
2019-04-27T11:17:00.071Z,11.11
2019-04-27T11:19:31.373Z,11.21
2019-04-27T11:22:03.000Z,11.34
2019-04-27T11:24:34.224Z,11.53
2019-04-27T11:27:05.903Z,11.63
2019-04-27T11:29:46.712Z,11.71
2019-04-27T11:32:35.890Z,10.98
2019-04-27T11:35:35.814Z,11.24
2019-04-27T11:38:07.705Z,11.31
2019-04-27T11:40:39.161Z,10.99
2019-04-27T11:43:26.077Z,10.55
2019-04-27T11:46:18.719Z,10.87
2019-04-27T11:49:07.870Z,10.85
2019-04-27T11:51:39.124Z,10.79
2019-04-27T11:54:10.458Z,10.83
2019-04-27T11:56:42.361Z,11.00
2019-04-27T12:01:50.614Z,10.95
2019-04-27T12:04:48.385Z,11.02
2019-04-27T12:07:23.346Z,10.92
2019-04-27T12:09:59.979Z,11.07
2019-04-27T12:12:32.004Z,11.25
2019-04-27T12:15:03.216Z,11.35
2019-04-27T12:17:41.095Z,11.28
2019-04-27T12:20:39.739Z,11.26
2019-04-27T12:23:16.553Z,11.17
2019-04-27T12:25:58.087Z,10.99
2019-04-27T12:28:52.592Z,10.98
2019-04-27T12:31:32.842Z,10.59
2019-04-27T12:34:16.292Z,10.61
2019-04-27T12:37:07.302Z,10.69
2019-04-27T12:39:38.758Z,10.98
2019-04-27T12:42:10.825Z,11.30
2019-04-27T12:45:00.425Z,11.55
2019-04-27T12:47:31.799Z,11.63
2019-04-27T12:50:03.076Z,11.53
2019-04-27T12:52:35.983Z,11.32
2019-04-27T12:55:25.739Z,11.45
2019-04-27T12:58:16.458Z,11.38
2019-04-27T13:00:49.635Z,11.50
2019-04-27T13:03:21.187Z,11.55
2019-04-27T13:05:52.854Z,11.49
2019-04-27T13:08:25.861Z,11.65
2019-04-27T13:10:57.404Z,11.87
2019-04-27T13:13:28.781Z,12.10
2019-04-27T13:15:59.985Z,12.32
2019-04-27T13:18:31.456Z,12.01
2019-04-27T13:21:02.724Z,11.84
2019-04-27T13:23:33.952Z,12.14
2019-04-27T13:26:06.243Z,12.34
2019-04-27T13:28:38.154Z,12.48
2019-04-27T13:31:09.510Z,12.74
2019-04-27T13:33:40.745Z,12.92
2019-04-27T13:36:12.474Z,12.89
2019-04-27T13:38:44.388Z,12.84
2019-04-27T13:41:26.166Z,13.22
2019-04-27T13:43:48.625Z,13.44
2019-04-27T13:46:33.574Z,12.65
2019-04-27T13:49:22.528Z,12.99
2019-04-27T13:52:07.553Z,13.22
2019-04-27T13:54:38.857Z,12.98
2019-04-27T13:57:10.347Z,13.20
2019-04-27T13:59:41.922Z,13.11
2019-04-27T14:02:16.150Z,12.83
2019-04-27T14:04:47.523Z,13.19
2019-04-27T14:07:19.071Z,13.56
2019-04-27T14:09:50.643Z,13.76
2019-04-27T14:12:22.363Z,13.86
2019-04-27T14:14:53.936Z,13.80
2019-04-27T14:17:25.416Z,13.30
2019-04-27T14:19:56.969Z,13.61
2019-04-27T14:22:31.343Z,13.64
2019-04-27T14:25:01.402Z,13.37
2019-04-27T14:27:40.553Z,13.25
2019-04-27T14:30:15.431Z,13.61
2019-04-27T14:32:48.811Z,13.96
2019-04-27T14:35:21.662Z,13.65
2019-04-27T14:37:52.907Z,14.02
2019-04-27T14:40:24.317Z,13.82
2019-04-27T14:42:55.949Z,13.90
2019-04-27T14:45:28.628Z,14.23
2019-04-27T14:48:00.054Z,14.50
2019-04-27T14:50:31.246Z,14.30
2019-04-27T14:53:02.456Z,13.55
2019-04-27T14:55:33.709Z,13.64
2019-04-27T14:58:05.223Z,13.90
2019-04-27T15:00:38.473Z,14.35
2019-04-27T15:03:10.144Z,14.33
2019-04-27T15:05:43.346Z,14.36
2019-04-27T15:08:18.447Z,14.08
2019-04-27T15:10:49.753Z,14.24
2019-04-27T15:13:21.120Z,14.15
2019-04-27T15:15:52.611Z,14.54
2019-04-27T15:18:25.503Z,14.49
2019-04-27T15:20:58.470Z,14.38
2019-04-27T15:23:30.885Z,14.45
2019-04-27T15:26:02.932Z,13.66
2019-04-27T15:28:36.585Z,13.96
2019-04-27T15:31:29.440Z,13.52
2019-04-27T15:34:27.503Z,13.62
2019-04-27T15:37:33.956Z,13.84
2019-04-27T15:40:28.998Z,14.00
2019-04-27T15:43:22.922Z,13.26
2019-04-27T15:45:57.722Z,13.47
2019-04-27T15:48:30.693Z,13.72
2019-04-27T15:51:12.600Z,13.94
2019-04-27T15:53:40.773Z,14.11
2019-04-27T15:56:09.769Z,14.11
2019-04-27T15:58:41.670Z,14.00
2019-04-27T16:01:49.028Z,14.03
2019-04-27T16:04:20.353Z,13.91
2019-04-27T16:06:51.580Z,12.92
2019-04-27T16:09:25.548Z,13.34
2019-04-27T16:12:14.315Z,13.67
2019-04-27T16:15:05.126Z,13.51
2019-04-27T16:17:42.351Z,13.49
2019-04-27T16:20:10.344Z,13.68
2019-04-27T16:22:41.660Z,13.94
2019-04-27T16:25:13.632Z,14.07
2019-04-27T16:27:48.989Z,14.03
2019-04-27T16:30:22.424Z,13.77
2019-04-27T16:32:58.379Z,13.64
2019-04-27T16:35:34.126Z,13.55
2019-04-27T16:38:33.560Z,13.63
2019-04-27T16:41:21.166Z,13.74
2019-04-27T16:43:52.914Z,14.00
2019-04-27T16:46:24.547Z,14.03
2019-04-27T16:48:55.921Z,13.45
2019-04-27T16:51:29.735Z,13.44
2019-04-27T16:54:01.937Z,13.23
2019-04-27T16:56:33.271Z,13.33
2019-04-27T16:59:26.747Z,13.14
2019-04-27T17:01:40.090Z,12.92
2019-04-27T17:04:14.981Z,13.16
2019-04-27T17:06:46.365Z,12.81
2019-04-27T17:09:18.948Z,12.93
2019-04-27T17:11:51.788Z,12.98
2019-04-27T17:14:36.589Z,12.80
2019-04-27T17:17:30.299Z,12.88
2019-04-27T17:20:03.696Z,12.81
2019-04-27T17:22:35.211Z,12.86
2019-04-27T17:25:08.850Z,12.56
2019-04-27T17:27:48.430Z,12.32
2019-04-27T17:30:20.099Z,11.92
2019-04-27T17:33:15.596Z,12.45
2019-04-27T17:35:46.308Z,12.49
2019-04-27T17:38:19.557Z,12.35
2019-04-27T17:40:51.833Z,12.31
2019-04-27T17:43:23.340Z,12.31
2019-04-27T17:45:54.989Z,12.09
2019-04-27T17:48:28.754Z,12.14
2019-04-27T17:51:02.458Z,12.08
2019-04-27T17:53:33.289Z,12.14
2019-04-27T17:56:05.991Z,12.20
2019-04-27T17:58:39.862Z,12.00
2019-04-27T18:01:14.087Z,12.02
2019-04-27T18:03:44.476Z,12.04
2019-04-27T18:06:15.988Z,11.92
2019-04-27T18:08:48.577Z,11.93
2019-04-27T18:11:25.845Z,11.91
2019-04-27T18:14:15.544Z,11.75
2019-04-27T18:16:48.188Z,11.62
2019-04-27T18:19:24.813Z,11.43
2019-04-27T18:22:06.450Z,11.40
2019-04-27T18:25:15.286Z,11.31
2019-04-27T18:27:54.090Z,11.24
2019-04-27T18:30:33.654Z,11.23
2019-04-27T18:33:05.167Z,10.85
2019-04-27T18:35:38.636Z,10.97
2019-04-27T18:38:10.109Z,10.88
2019-04-27T18:40:41.698Z,10.85
2019-04-27T18:43:15.099Z,10.81
2019-04-27T18:45:48.512Z,10.87
2019-04-27T18:48:40.266Z,10.87
2019-04-27T18:51:30.496Z,10.86
2019-04-27T18:54:03.558Z,10.78
2019-04-27T18:56:41.771Z,10.74
2019-04-27T18:59:13.341Z,10.78
2019-04-27T19:01:44.968Z,10.86
2019-04-27T19:04:16.341Z,10.74
2019-04-27T19:06:47.745Z,10.82
2019-04-27T19:09:20.029Z,10.68
2019-04-27T19:11:56.220Z,10.37
2019-04-27T19:14:26.091Z,10.44
2019-04-27T19:16:58.781Z,10.50
2019-04-27T19:19:30.537Z,10.53
2019-04-27T19:22:02.309Z,10.49
2019-04-27T19:24:33.871Z,10.47
2019-04-27T19:27:21.204Z,10.44
2019-04-27T19:29:55.576Z,10.38
2019-04-27T19:32:29.041Z,10.31
2019-04-27T19:35:00.265Z,10.31
2019-04-27T19:37:32.029Z,10.25
2019-04-27T19:40:03.262Z,10.19
2019-04-27T19:42:34.544Z,10.03
2019-04-27T19:45:06.589Z,9.83
2019-04-27T19:47:38.581Z,9.75
2019-04-27T19:50:10.386Z,9.59
2019-04-27T19:52:42.520Z,9.48
2019-04-27T19:55:14.006Z,9.61
2019-04-27T19:57:45.707Z,9.55
2019-04-27T20:00:30.482Z,9.30
2019-04-27T20:03:03.016Z,9.41
2019-04-27T20:05:34.735Z,9.43
2019-04-27T20:08:08.878Z,9.36
2019-04-27T20:10:43.059Z,9.23
2019-04-27T20:13:17.318Z,9.43
2019-04-27T20:15:48.727Z,9.42
2019-04-27T20:18:20.890Z,9.43
2019-04-27T20:20:53.427Z,9.45
2019-04-27T20:23:24.632Z,9.37
2019-04-27T20:25:56.198Z,9.40
2019-04-27T20:28:27.539Z,9.45
2019-04-27T20:30:59.664Z,9.48
2019-04-27T20:33:31.321Z,9.55
2019-04-27T20:36:02.881Z,9.46
2019-04-27T20:38:34.250Z,9.47
2019-04-27T20:41:05.841Z,9.40
2019-04-27T20:43:37.405Z,9.22
2019-04-27T20:46:08.660Z,9.17
2019-04-27T20:48:41.377Z,9.11
2019-04-27T20:51:13.277Z,9.05
2019-04-27T20:53:48.362Z,9.12
2019-04-27T20:56:19.969Z,9.07
2019-04-27T20:58:51.849Z,9.09
2019-04-27T21:01:23.511Z,9.03
2019-04-27T21:03:57.778Z,9.15
2019-04-27T21:06:40.993Z,9.14
2019-04-27T21:09:16.447Z,9.22
2019-04-27T21:11:48.932Z,9.17
2019-04-27T21:14:21.726Z,9.21
2019-04-27T21:16:53.609Z,9.16
2019-04-27T21:19:25.016Z,9.16
2019-04-27T21:21:56.407Z,9.15
2019-04-27T21:24:27.786Z,9.12
2019-04-27T21:26:59.845Z,9.13
2019-04-27T21:29:31.294Z,8.99
2019-04-27T21:32:02.701Z,8.89
2019-04-27T21:34:34.481Z,8.91
2019-04-27T21:37:05.931Z,8.65
2019-04-27T21:39:37.475Z,8.67
2019-04-27T21:42:09.049Z,8.77
2019-04-27T21:44:41.976Z,8.71
2019-04-27T21:47:13.422Z,8.74
2019-04-27T21:49:45.041Z,8.60
2019-04-27T21:52:25.116Z,8.64
2019-04-27T21:54:56.674Z,8.56
2019-04-27T21:57:28.299Z,8.57
2019-04-27T22:00:00.792Z,8.44
2019-04-27T22:02:32.836Z,8.51
2019-04-27T22:05:08.335Z,8.46
2019-04-27T22:07:39.682Z,8.53
2019-04-27T22:10:11.712Z,8.58
2019-04-27T22:12:43.265Z,8.57
2019-04-27T22:15:14.865Z,8.39
2019-04-27T22:17:46.519Z,8.16
2019-04-27T22:20:17.965Z,8.14
2019-04-27T22:22:51.713Z,8.12
2019-04-27T22:25:23.477Z,8.16
2019-04-27T22:27:55.191Z,8.19
2019-04-27T22:30:26.486Z,8.05
2019-04-27T22:32:58.293Z,8.03
2019-04-27T22:35:31.305Z,7.96
2019-04-27T22:38:02.948Z,8.00
2019-04-27T22:41:02.203Z,7.97
2019-04-27T22:43:52.363Z,8.05
2019-04-27T22:46:24.391Z,7.93
2019-04-27T22:48:57.060Z,7.62
2019-04-27T22:51:28.266Z,7.79
2019-04-27T22:54:01.344Z,7.79
2019-04-27T22:56:32.941Z,7.28
2019-04-27T22:59:27.055Z,7.60
2019-04-27T23:02:12.759Z,7.66
2019-04-27T23:04:48.412Z,7.79
2019-04-27T23:07:21.260Z,7.83
2019-04-27T23:09:52.611Z,7.67
2019-04-27T23:12:23.933Z,7.53
2019-04-27T23:14:55.446Z,7.57
2019-04-27T23:17:51.762Z,7.51
2019-04-27T23:20:24.125Z,7.64
2019-04-27T23:22:55.765Z,7.70
2019-04-27T23:25:26.992Z,7.79
2019-04-27T23:27:58.230Z,7.78
2019-04-27T23:30:41.106Z,7.87
2019-04-27T23:33:12.354Z,7.90
2019-04-27T23:35:44.203Z,7.91
2019-04-27T23:38:20.567Z,8.07
2019-04-27T23:40:51.935Z,8.22
2019-04-27T23:43:23.336Z,8.31
2019-04-27T23:45:55.449Z,8.33
2019-04-27T23:48:26.864Z,8.41
2019-04-27T23:51:04.345Z,8.55
2019-04-27T23:53:36.913Z,8.63
2019-04-27T23:56:08.317Z,8.63
2019-04-27T23:58:40.076Z,8.64
